Cadillac, MI

9:59 AM EDT on October 21, 2019 (GMT -0400)
Wexford County

Weather History for KCAD - June, 2019

Change the Weather History Date:

Friday, June 7, 2019

  Actual Average Record
Temperature  
Mean Temperature 64 °F -  
Max Temperature 83 °F 75 °F 93 °F (2011)
Min Temperature 46 °F 48 °F 26 °F (1949)
Growing Degree Days 14 (Base 50)    
Moisture  
Dew Point 47 °F    
Average Humidity 57    
Maximum Humidity 95    
Minimum Humidity 28    
Precipitation  
Precipitation 0.00 in - - ()
Sea Level Pressure  
Sea Level Pressure 30.02 in    
Wind  
Wind Speed 3 mph (ESE)    
Max Wind Speed 12 mph    
Max Gust Speed 16 mph    
Visibility 10 miles    
Events      
Averages and records for this station are not official NWS values.
T = Trace of Precipitation, MM = Missing Value Source: NWS Daily Summary

Daily Weather History Graph

Daily Weather History Graph

Search for Another Location

Airport or City:

Astronomy

Jun. 07, 2019 Rise Set
Actual Time 5:58 AM EDT 9:22 PM EDT
Civil Twilight 5:22 AM EDT 9:59 PM EDT
Nautical Twilight 4:35 AM EDT 10:46 PM EDT
Astronomical Twilight 3:35 AM EDT 11:46 PM EDT
Moon 10:17 AM EDT (6/7) 12:37 AM EDT (6/7)
Length of Visible Light 16h 36m
Length of Day
15h 24m
Waxing Crescent, 22% of the Moon is Illuminated
Jun 7
Waxing Crescent
Jun 10
First Quarter
Jun 17
Full
Jun 25
Last Quarter
Jul 2
New

Hourly Weather History & Observations

Time (EDT) Temp. Dew Point Humidity Pressure Visibility Wind Dir Wind Speed Gust Speed Precip Events Conditions
12:15 AM 51.8 °F 50.2 °F 94% 29.97 in 10.0 mi Calm Calm - N/A   Clear
12:16 AM 52.2 °F 50.5 °F 94% 29.97 in 10.0 mi Calm Calm - N/A   Clear
12:39 AM 52.7 °F 50.9 °F 94% 29.97 in 10.0 mi Calm Calm - N/A   Clear
12:57 AM 50.9 °F 49.1 °F 94% 29.97 in 10.0 mi Calm Calm - N/A   Clear
1:15 AM 51.3 °F 49.6 °F 94% 29.97 in 10.0 mi Calm Calm - N/A   Clear
1:35 AM 50.7 °F 49.3 °F 95% 29.97 in 10.0 mi Calm Calm - N/A   Clear
1:55 AM 50.5 °F 49.1 °F 95% 29.96 in 10.0 mi Calm Calm - N/A   Clear
2:00 AM 50.4 °F 49.1 °F 95% 29.96 in 10.0 mi Calm Calm - N/A   Clear
2:18 AM 49.5 °F 48.0 °F 95% 29.96 in 10.0 mi Calm Calm - N/A   Clear
2:36 AM 50.0 °F 48.4 °F 94% 29.96 in 10.0 mi Calm Calm - N/A   Clear
2:55 AM 49.1 °F 47.7 °F 95% 29.96 in 10.0 mi Calm Calm - N/A   Clear
2:56 AM 49.1 °F 47.7 °F 95% 29.96 in 10.0 mi Calm Calm - N/A   Clear
3:15 AM 48.6 °F 47.1 °F 95% 29.96 in 10.0 mi Calm Calm - N/A   Clear
3:16 AM 48.4 °F 46.9 °F 95% 29.96 in 10.0 mi Calm Calm - N/A   Clear
3:39 AM 47.5 °F 46.0 °F 95% 29.96 in 10.0 mi Calm Calm - N/A   Clear
3:57 AM 48.4 °F 46.9 °F 95% 29.96 in 10.0 mi Calm Calm - N/A   Clear
4:15 AM 48.4 °F 46.9 °F 95% 29.96 in 10.0 mi Calm Calm - N/A   Clear
4:35 AM 47.8 °F 46.2 °F 94% 29.97 in 10.0 mi Calm Calm - N/A   Clear
4:55 AM 46.8 °F 45.1 °F 94% 29.97 in 10.0 mi Calm Calm - N/A   Clear
5:18 AM 46.8 °F 45.3 °F 95% 29.98 in 10.0 mi Calm Calm - N/A   Clear
5:36 AM 47.3 °F 45.7 °F 94% 29.98 in 10.0 mi Calm Calm - N/A   Clear
5:55 AM 46.6 °F 45.1 °F 95% 29.99 in 10.0 mi Calm Calm - N/A   Clear
5:56 AM 46.8 °F 45.3 °F 95% 29.99 in 10.0 mi Calm Calm - N/A   Clear
6:15 AM 46.4 °F 45.0 °F 95% 30.00 in 10.0 mi Calm Calm - N/A   Clear
6:16 AM 46.8 °F 45.3 °F 95% 30.00 in 10.0 mi Calm Calm - N/A   Clear
6:39 AM 47.8 °F 46.2 °F 94% 30.01 in 10.0 mi Calm Calm - N/A   Clear
6:57 AM 50.0 °F 48.6 °F 95% 30.02 in 10.0 mi Calm Calm - N/A   Clear
7:15 AM 52.0 °F 50.4 °F 94% 30.02 in 10.0 mi Calm Calm - N/A   Clear
7:35 AM 54.9 °F 51.6 °F 89% 30.02 in 10.0 mi Calm Calm - N/A   Clear
7:36 AM 55.0 °F 51.3 °F 87% 30.02 in 10.0 mi Calm Calm - N/A   Clear
7:55 AM 59.4 °F 50.5 °F 73% 30.03 in 10.0 mi Calm Calm - N/A   Clear
8:00 AM 60.4 °F 49.6 °F 68% 30.03 in 10.0 mi Calm Calm - N/A   Clear
8:18 AM 63.5 °F 50.5 °F 63% 30.03 in 10.0 mi East 4.6 mph - N/A   Clear
8:36 AM 65.1 °F 51.4 °F 61% 30.04 in 10.0 mi East 3.5 mph - N/A   Clear
8:55 AM 67.6 °F 52.2 °F 58% 30.04 in 10.0 mi East 4.6 mph - N/A   Clear
9:15 AM 69.4 °F 52.2 °F 54% 30.04 in 10.0 mi East 3.5 mph - N/A   Clear
9:39 AM 71.2 °F 51.4 °F 50% 30.04 in 10.0 mi East 3.5 mph - N/A   Clear
9:57 AM 72.7 °F 46.8 °F 40% 30.05 in 10.0 mi East 4.6 mph - N/A   Clear
10:15 AM 74.1 °F 44.8 °F 35% 30.05 in 10.0 mi East 6.9 mph - N/A   Clear
10:35 AM 75.6 °F 46.4 °F 35% 30.04 in 10.0 mi ESE 8.1 mph - N/A   Clear
10:55 AM 76.1 °F 46.8 °F 35% 30.05 in 10.0 mi ESE 11.5 mph - N/A   Clear
10:59 AM 76.3 °F 46.9 °F 35% 30.05 in 10.0 mi East 10.4 mph - N/A   Clear
11:18 AM 77.2 °F 46.9 °F 34% 30.05 in 10.0 mi ESE 9.2 mph - N/A   Clear
11:36 AM 77.5 °F 47.7 °F 35% 30.05 in 10.0 mi East 6.9 mph - N/A   Clear
11:55 AM 77.5 °F 46.8 °F 34% 30.05 in 10.0 mi ESE 10.4 mph - N/A   Clear
12:15 PM 78.6 °F 47.3 °F 33% 30.05 in 10.0 mi ESE 8.1 mph - N/A   Clear
12:39 PM 78.8 °F 46.6 °F 32% 30.05 in 10.0 mi ESE 6.9 mph - N/A   Clear
12:56 PM 80.1 °F 47.7 °F 32% 30.05 in 10.0 mi ESE 4.6 mph - N/A   Clear
1:15 PM 80.2 °F 47.5 °F 32% 30.05 in 10.0 mi ENE 6.9 mph - N/A   Clear
1:35 PM 80.4 °F 48.6 °F 33% 30.04 in 10.0 mi East 4.6 mph - N/A   Clear
1:55 PM 81.0 °F 49.3 °F 33% 30.04 in 10.0 mi ENE 5.8 mph - N/A   Clear
1:59 PM 81.3 °F 48.9 °F 32% 30.04 in 10.0 mi SE 6.9 mph - N/A   Clear
2:18 PM 81.3 °F 48.7 °F 32% 30.03 in 10.0 mi East 9.2 mph - N/A   Clear
2:36 PM 82.4 °F 48.9 °F 31% 30.03 in 10.0 mi ENE 8.1 mph 16.1 mph N/A   Scattered Clouds
2:55 PM 81.3 °F 47.8 °F 31% 30.03 in 10.0 mi South 3.5 mph - N/A   Clear
3:15 PM 83.5 °F 49.1 °F 30% 30.03 in 10.0 mi ENE 8.1 mph 16.1 mph N/A   Clear
3:39 PM 82.8 °F 48.4 °F 30% 30.03 in 10.0 mi ESE 10.4 mph 16.1 mph N/A   Clear
3:57 PM 83.3 °F 48.2 °F 29% 30.03 in 10.0 mi East 6.9 mph - N/A   Clear
4:15 PM 82.8 °F 47.5 °F 29% 30.02 in 10.0 mi East 9.2 mph - N/A   Clear
4:35 PM 82.4 °F 46.4 °F 28% 30.02 in 10.0 mi East 6.9 mph - N/A   Clear
4:55 PM 83.3 °F 48.2 °F 29% 30.02 in 10.0 mi East 11.5 mph - N/A   Clear
4:59 PM 83.3 °F 47.8 °F 29% 30.02 in 10.0 mi ESE 6.9 mph 10.4 mph N/A   Clear
5:18 PM 82.8 °F 47.7 °F 29% 30.01 in 10.0 mi East 4.6 mph - N/A   Clear
5:36 PM 83.1 °F 47.3 °F 29% 30.01 in 10.0 mi ENE 4.6 mph - N/A   Clear
5:55 PM 82.2 °F 46.9 °F 29% 30.01 in 10.0 mi East 10.4 mph - N/A   Clear
5:56 PM 82.4 °F 47.3 °F 29% 30.01 in 10.0 mi East 10.4 mph - N/A   Clear
6:15 PM 82.8 °F 48.4 °F 30% 30.01 in 10.0 mi East 8.1 mph - N/A   Clear
6:16 PM 82.9 °F 48.6 °F 30% 30.01 in 10.0 mi East 8.1 mph - N/A   Clear
6:39 PM 82.8 °F 48.0 °F 30% 30.01 in 10.0 mi East 10.4 mph - N/A   Clear
6:57 PM 82.4 °F 48.2 °F 30% 30.00 in 10.0 mi East 9.2 mph - N/A   Clear
7:15 PM 81.7 °F 46.9 °F 30% 30.00 in 10.0 mi SE 5.8 mph - N/A   Clear
7:35 PM 81.5 °F 46.6 °F 29% 30.01 in 10.0 mi East 5.8 mph - N/A   Clear
7:36 PM 81.5 °F 46.9 °F 30% 30.01 in 10.0 mi East 5.8 mph - N/A   Clear
7:55 PM 79.0 °F 49.5 °F 35% 30.02 in 10.0 mi SE 10.4 mph - N/A   Clear
8:00 PM 78.8 °F 50.0 °F 36% 30.02 in 10.0 mi SE 11.5 mph - N/A   Clear
8:18 PM 77.0 °F 45.7 °F 33% 30.03 in 10.0 mi SE 11.5 mph 16.1 mph N/A   Clear
8:36 PM 75.6 °F 43.7 °F 32% 30.04 in 10.0 mi SE 6.9 mph - N/A   Clear
8:55 PM 73.4 °F 44.8 °F 36% 30.04 in 10.0 mi SE 9.2 mph - N/A   Clear
8:56 PM 73.4 °F 44.6 °F 36% 30.04 in 10.0 mi SE 9.2 mph - N/A   Clear
9:15 PM 71.8 °F 43.9 °F 37% 30.05 in 10.0 mi SE 3.5 mph - N/A   Clear
9:39 PM 69.1 °F 43.9 °F 40% 30.06 in 10.0 mi ESE 4.6 mph - N/A   Clear
9:57 PM 69.1 °F 43.9 °F 40% 30.06 in 10.0 mi East 4.6 mph - N/A   Clear
10:15 PM 67.3 °F 43.7 °F 42% 30.07 in 10.0 mi Calm Calm - N/A   Clear
10:16 PM 67.1 °F 43.9 °F 43% 30.07 in 10.0 mi Calm Calm - N/A   Clear
10:35 PM 66.6 °F 43.7 °F 44% 30.08 in 10.0 mi SE 3.5 mph - N/A   Clear
10:36 PM 66.7 °F 43.7 °F 43% 30.08 in 10.0 mi SE 3.5 mph - N/A   Clear
10:55 PM 67.1 °F 43.2 °F 42% 30.08 in 10.0 mi Calm Calm - N/A   Clear
11:00 PM 66.4 °F 43.5 °F 44% 30.08 in 10.0 mi Calm Calm - N/A   Clear
11:18 PM 63.0 °F 44.2 °F 50% 30.08 in 10.0 mi Calm Calm - N/A   Clear
11:36 PM 59.2 °F 46.8 °F 63% 30.08 in 10.0 mi Calm Calm - N/A   Clear
11:55 PM 57.2 °F 48.2 °F 72% 30.08 in 10.0 mi Calm Calm - N/A   Clear